Time;durP1;ratioP1;P1;durP2;ratioP2;P2;SDS_P1;SDS_P2;PMS_P1;PMS_P2;Temp;Humidity;BMP_temperature;BMP_pressure;BME280_temperature;BME280_humidity;BME280_pressure;Samples;Min_cycle;Max_cycle;Signal;HPM_P1;HPM_P2
2022/12/08 00:00:53;;;;;;;12.90;9.67;;;1.40;99.90;;;;;;5063297;28;20219;-54
2022/12/08 00:03:20;;;;;;;16.20;10.47;;;1.30;99.90;;;;;;5059593;28;20240;-48
2022/12/08 00:11:19;;;;;;;18.40;10.80;;;1.40;99.90;;;;;;5044410;28;20279;-52
2022/12/08 00:13:46;;;;;;;16.43;11.10;;;1.40;99.90;;;;;;5057760;28;20203;-48
2022/12/08 00:16:13;;;;;;;18.23;12.10;;;1.40;99.90;;;;;;5056746;28;20211;-52
2022/12/08 00:18:40;;;;;;;19.47;12.20;;;1.40;99.90;;;;;;5063677;28;20195;-49
2022/12/08 00:21:09;;;;;;;16.50;12.37;;;1.40;99.90;;;;;;5061065;28;20211;-54
2022/12/08 00:23:36;;;;;;;17.33;11.57;;;1.40;99.90;;;;;;5062683;28;20205;-52
2022/12/08 00:26:03;;;;;;;16.10;11.70;;;1.40;99.90;;;;;;5046808;28;20266;-58
2022/12/08 00:28:31;;;;;;;19.40;12.50;;;1.40;99.90;;;;;;5061594;28;20206;-51
2022/12/08 00:30:58;;;;;;;20.20;13.27;;;1.50;99.90;;;;;;5062250;28;20222;-56
2022/12/08 00:33:27;;;;;;;18.73;12.13;;;1.50;99.90;;;;;;5056106;28;20932;-48
2022/12/08 00:35:54;;;;;;;22.73;12.50;;;1.50;99.90;;;;;;5063308;28;20187;-53
2022/12/08 00:38:22;;;;;;;19.67;13.00;;;1.50;99.90;;;;;;5059022;28;20189;-48
2022/12/08 00:40:49;;;;;;;19.97;12.90;;;1.50;99.90;;;;;;5063618;28;20229;-51
2022/12/08 00:43:16;;;;;;;20.60;12.67;;;1.50;99.90;;;;;;5042801;28;20213;-56
2022/12/08 00:45:43;;;;;;;18.13;12.97;;;1.50;99.90;;;;;;5062991;28;20195;-49
2022/12/08 00:48:10;;;;;;;21.83;14.13;;;1.50;99.90;;;;;;5054731;28;20194;-56
2022/12/08 00:50:37;;;;;;;19.87;13.40;;;1.50;99.90;;;;;;5062926;28;20218;-55
2022/12/08 00:53:27;;;;;;;18.87;12.77;;;1.50;99.90;;;;;;5060442;28;20193;-51
2022/12/08 00:55:54;;;;;;;18.93;12.43;;;1.60;99.90;;;;;;5063430;28;20191;-50
2022/12/08 00:58:21;;;;;;;18.93;13.20;;;1.60;99.90;;;;;;5047046;28;20218;-50
2022/12/08 01:00:48;;;;;;;19.63;12.80;;;1.60;99.90;;;;;;5062778;28;20250;-50
2022/12/08 01:03:15;;;;;;;17.60;12.50;;;1.60;99.90;;;;;;5055456;28;20202;-48
2022/12/08 01:05:43;;;;;;;19.00;12.53;;;1.60;99.90;;;;;;5065191;28;20691;-48
2022/12/08 01:08:09;;;;;;;18.07;12.23;;;1.60;99.90;;;;;;5062533;28;20200;-61
2022/12/08 01:10:38;;;;;;;21.30;13.17;;;1.70;99.90;;;;;;5066607;28;20207;-47
2022/12/08 01:13:06;;;;;;;20.47;12.47;;;1.70;99.90;;;;;;5048809;28;20285;-64
2022/12/08 01:15:32;;;;;;;18.30;13.17;;;1.70;99.90;;;;;;5064656;28;20191;-49
2022/12/08 01:18:00;;;;;;;18.23;11.83;;;1.70;99.90;;;;;;5060340;28;20237;-59
2022/12/08 01:20:26;;;;;;;16.50;11.57;;;1.70;99.90;;;;;;5058044;28;20223;-48
2022/12/08 01:22:53;;;;;;;13.33;9.73;;;1.70;99.90;;;;;;5065736;28;20191;-47
2022/12/08 01:25:21;;;;;;;15.33;10.83;;;1.80;99.90;;;;;;5063184;28;20456;-45
2022/12/08 01:27:51;;;;;;;12.90;10.13;;;1.80;99.90;;;;;;5066712;28;20539;-54
2022/12/08 01:30:18;;;;;;;13.67;9.17;;;1.80;99.90;;;;;;5046823;28;20226;-53
2022/12/08 01:32:45;;;;;;;12.97;9.20;;;1.80;99.90;;;;;;5066263;28;20207;-45
2022/12/08 01:35:13;;;;;;;13.97;9.97;;;1.80;99.90;;;;;;5057737;28;20561;-63
2022/12/08 01:37:40;;;;;;;11.80;9.17;;;1.80;99.90;;;;;;5064336;28;20215;-57
2022/12/08 01:40:08;;;;;;;12.20;8.63;;;1.80;99.90;;;;;;5063728;28;20210;-63
2022/12/08 01:42:37;;;;;;;11.93;9.10;;;1.90;99.90;;;;;;5065175;28;20270;-51
2022/12/08 01:45:07;;;;;;;14.10;8.47;;;1.90;99.90;;;;;;5048087;28;20214;-61
2022/12/08 01:47:39;;;;;;;12.33;8.07;;;1.90;99.90;;;;;;5064942;28;20749;-53
2022/12/08 01:50:09;;;;;;;11.47;8.40;;;1.90;99.90;;;;;;5058473;28;20708;-62
2022/12/08 01:52:40;;;;;;;12.27;8.43;;;1.90;99.90;;;;;;5065431;28;20274;-54
2022/12/08 01:55:11;;;;;;;9.37;7.37;;;1.90;99.90;;;;;;5063389;28;20199;-63
2022/12/08 01:57:43;;;;;;;10.63;7.37;;;1.90;99.90;;;;;;5066015;28;20221;-48
2022/12/08 02:00:15;;;;;;;12.10;8.33;;;1.90;99.90;;;;;;5047369;28;20719;-63
2022/12/08 02:02:56;;;;;;;9.87;7.33;;;2.00;99.90;;;;;;5065546;28;20558;-45
2022/12/08 02:05:26;;;;;;;14.47;7.37;;;2.00;99.90;;;;;;5056917;28;20206;-56
2022/12/08 02:07:55;;;;;;;11.37;7.60;;;2.00;99.90;;;;;;5065941;28;20195;-51
2022/12/08 02:10:24;;;;;;;10.30;8.83;;;2.00;99.90;;;;;;5062345;28;20210;-49
2022/12/08 02:12:53;;;;;;;8.10;7.27;;;2.00;99.90;;;;;;5062250;28;20221;-46
2022/12/08 02:15:28;;;;;;;10.23;7.67;;;2.00;99.90;;;;;;5044579;28;20293;-47
2022/12/08 02:18:05;;;;;;;10.00;7.57;;;2.00;99.90;;;;;;5065230;28;20608;-58
2022/12/08 02:20:49;;;;;;;9.43;6.93;;;2.00;99.90;;;;;;5059077;28;20305;-49
2022/12/08 02:23:26;;;;;;;7.13;6.20;;;2.00;99.90;;;;;;5061420;28;20240;-49
2022/12/08 02:26:26;;;;;;;7.87;7.07;;;2.00;99.90;;;;;;5065688;28;20193;-54
2022/12/08 02:29:31;;;;;;;7.20;6.50;;;1.90;99.90;;;;;;5065530;28;20578;-46
2022/12/08 02:32:20;;;;;;;5.67;5.10;;;1.90;99.90;;;;;;5048737;28;20213;-59
2022/12/08 02:34:54;;;;;;;5.33;4.83;;;1.90;99.90;;;;;;5065369;28;20206;-44
2022/12/08 02:37:29;;;;;;;5.47;4.37;;;1.90;99.90;;;;;;5046990;28;20221;-44
2022/12/08 02:40:01;;;;;;;6.17;5.00;;;1.90;99.90;;;;;;5045144;28;20217;-58
2022/12/08 02:42:35;;;;;;;5.80;4.87;;;1.90;99.90;;;;;;5043366;28;20179;-46
2022/12/08 02:45:08;;;;;;;6.17;5.30;;;1.90;99.90;;;;;;5053893;28;20199;-61
2022/12/08 02:47:37;;;;;;;5.30;4.80;;;1.90;99.90;;;;;;5042327;28;20666;-44
2022/12/08 02:50:07;;;;;;;5.73;5.23;;;1.90;99.90;;;;;;5063028;28;20255;-62
2022/12/08 02:52:43;;;;;;;7.43;5.90;;;1.90;99.90;;;;;;5058048;28;20211;-51
2022/12/08 02:55:18;;;;;;;6.27;5.67;;;1.90;99.90;;;;;;5061363;28;20198;-60
2022/12/08 02:58:07;;;;;;;6.13;5.53;;;1.90;99.90;;;;;;5064447;28;20691;-47
2022/12/08 03:00:42;;;;;;;5.80;5.30;;;1.90;99.90;;;;;;5063480;28;20218;-53
2022/12/08 03:03:19;;;;;;;6.67;5.93;;;1.90;99.90;;;;;;5046399;28;20665;-64
2022/12/08 03:05:59;;;;;;;7.90;5.87;;;2.00;99.90;;;;;;5064453;28;20194;-45
2022/12/08 03:08:32;;;;;;;10.63;6.30;;;2.00;99.90;;;;;;5056960;28;20704;-50
2022/12/08 03:11:03;;;;;;;5.90;5.40;;;2.00;99.90;;;;;;5063585;28;20206;-62
2022/12/08 03:13:38;;;;;;;9.43;5.67;;;2.00;99.90;;;;;;5056591;28;20199;-48
2022/12/08 03:16:08;;;;;;;7.13;5.33;;;2.00;99.90;;;;;;5061967;28;20669;-61
2022/12/08 03:18:40;;;;;;;6.97;5.30;;;2.10;99.90;;;;;;5048676;28;20225;-46
2022/12/08 03:21:10;;;;;;;6.10;5.17;;;2.10;99.90;;;;;;5061490;28;20219;-62
2022/12/08 03:23:39;;;;;;;9.33;4.80;;;2.00;99.90;;;;;;5058607;28;20298;-50
2022/12/08 03:26:12;;;;;;;4.80;4.10;;;2.10;99.90;;;;;;5061961;28;20237;-60
2022/12/08 03:28:39;;;;;;;4.40;4.00;;;2.10;99.90;;;;;;5063457;28;20195;-45
2022/12/08 03:31:10;;;;;;;4.13;3.73;;;2.10;99.90;;;;;;5061464;28;20215;-63
2022/12/08 03:33:40;;;;;;;4.43;3.93;;;2.10;99.90;;;;;;5048192;28;20290;-47
2022/12/08 03:36:11;;;;;;;3.80;3.50;;;2.10;99.90;;;;;;5061364;28;20286;-61
2022/12/08 03:38:39;;;;;;;6.03;3.63;;;2.20;99.90;;;;;;5057697;28;20215;-49
2022/12/08 03:41:18;;;;;;;5.07;3.73;;;2.20;99.90;;;;;;5061935;28;20679;-60
2022/12/08 03:43:45;;;;;;;4.40;3.70;;;2.20;99.90;;;;;;5056864;28;20199;-45
2022/12/08 03:46:12;;;;;;;3.47;3.17;;;2.20;99.90;;;;;;5060099;28;20222;-60
2022/12/08 03:48:39;;;;;;;3.77;3.47;;;2.20;99.90;;;;;;5049042;28;20198;-47
2022/12/08 03:51:08;;;;;;;4.47;3.07;;;2.20;99.90;;;;;;5061538;28;20716;-61
2022/12/08 03:53:34;;;;;;;3.10;2.80;;;2.20;99.90;;;;;;5057291;28;20268;-49
2022/12/08 03:56:04;;;;;;;3.70;2.80;;;2.20;99.90;;;;;;5062495;28;20202;-60
2022/12/08 03:58:30;;;;;;;2.83;2.50;;;2.20;99.90;;;;;;5062435;28;20938;-49
2022/12/08 04:00:57;;;;;;;3.90;2.50;;;2.20;99.90;;;;;;5062724;28;20210;-61
2022/12/08 04:03:24;;;;;;;4.80;2.50;;;2.20;99.90;;;;;;5060726;28;20194;-50
2022/12/08 04:05:51;;;;;;;3.00;2.80;;;2.20;99.90;;;;;;5048323;28;20217;-45
2022/12/08 04:08:19;;;;;;;2.37;2.17;;;2.30;99.90;;;;;;5059430;28;20251;-57
2022/12/08 04:10:46;;;;;;;2.47;2.27;;;2.20;99.90;;;;;;5045570;28;20272;-49
2022/12/08 04:13:13;;;;;;;2.37;2.17;;;2.20;99.90;;;;;;5040015;28;20207;-62
2022/12/08 04:15:44;;;;;;;3.90;2.50;;;2.30;99.90;;;;;;5063275;28;20197;-46
2022/12/08 04:18:11;;;;;;;3.73;2.40;;;2.30;99.90;;;;;;5060020;28;20198;-61
2022/12/08 04:20:39;;;;;;;2.60;2.40;;;2.20;99.90;;;;;;5048884;28;20219;-44
2022/12/08 04:23:07;;;;;;;2.83;2.27;;;2.30;99.90;;;;;;5060144;28;20198;-62
2022/12/08 04:25:36;;;;;;;2.83;2.60;;;2.30;99.90;;;;;;5057620;28;20676;-45
2022/12/08 04:28:04;;;;;;;2.70;2.50;;;2.20;99.90;;;;;;5062108;28;20195;-61
2022/12/08 04:30:31;;;;;;;2.43;2.23;;;2.30;99.90;;;;;;5058903;28;20346;-51
2022/12/08 04:32:58;;;;;;;3.13;2.57;;;2.30;99.90;;;;;;5062307;28;20194;-61
2022/12/08 04:35:26;;;;;;;2.60;2.40;;;2.30;99.90;;;;;;5045877;28;20211;-47
2022/12/08 04:37:52;;;;;;;3.20;2.50;;;2.30;99.90;;;;;;5062402;28;20211;-45
2022/12/08 04:40:19;;;;;;;3.17;2.33;;;2.30;99.90;;;;;;5057269;28;21277;-48
2022/12/08 04:42:47;;;;;;;2.80;2.60;;;2.30;99.90;;;;;;5064387;28;20657;-47
2022/12/08 04:45:15;;;;;;;2.47;2.37;;;2.30;99.90;;;;;;5060059;28;20195;-45
2022/12/08 04:47:42;;;;;;;2.50;2.30;;;2.30;99.90;;;;;;5067162;28;20187;-46
2022/12/08 04:50:10;;;;;;;2.70;1.93;;;2.30;99.90;;;;;;5064170;28;20222;-63
2022/12/08 04:52:59;;;;;;;2.27;2.00;;;2.30;99.90;;;;;;5050692;28;20263;-61
2022/12/08 04:55:26;;;;;;;2.30;2.10;;;2.20;99.90;;;;;;5054631;28;20218;-50
2022/12/08 04:57:54;;;;;;;2.53;2.17;;;2.30;99.90;;;;;;5057880;28;20214;-45
2022/12/08 05:00:21;;;;;;;2.07;1.87;;;2.30;99.90;;;;;;5066932;28;20206;-44
2022/12/08 05:02:48;;;;;;;3.37;1.83;;;2.30;99.90;;;;;;5062501;28;20206;-49
2022/12/08 05:05:15;;;;;;;2.70;2.03;;;2.30;99.90;;;;;;5066975;28;20209;-44
2022/12/08 05:07:42;;;;;;;4.23;2.43;;;2.20;99.90;;;;;;5049982;28;20199;-62
2022/12/08 05:10:09;;;;;;;3.40;2.40;;;2.30;99.90;;;;;;5066309;28;20720;-44
2022/12/08 05:12:36;;;;;;;5.17;2.17;;;2.30;99.90;;;;;;5059714;28;20206;-61
2022/12/08 05:15:05;;;;;;;2.13;1.93;;;2.30;99.90;;;;;;5056461;28;20190;-47
2022/12/08 05:17:33;;;;;;;2.20;2.00;;;2.20;99.90;;;;;;5065503;28;20198;-60
2022/12/08 05:19:59;;;;;;;2.43;2.13;;;2.30;99.90;;;;;;5064230;28;20865;-49
2022/12/08 05:22:26;;;;;;;7.77;3.33;;;2.20;99.90;;;;;;5052241;28;20211;-55
2022/12/08 05:24:53;;;;;;;3.70;2.40;;;2.20;99.90;;;;;;5064746;28;20183;-52
2022/12/08 05:27:20;;;;;;;2.27;2.07;;;2.30;99.90;;;;;;5061487;28;20205;-51
2022/12/08 05:29:49;;;;;;;2.37;2.17;;;2.20;99.90;;;;;;5062139;28;20203;-51
2022/12/08 05:32:17;;;;;;;3.67;2.03;;;2.30;99.90;;;;;;5066181;28;20221;-51
2022/12/08 05:34:44;;;;;;;1.70;1.60;;;2.30;99.90;;;;;;5063098;28;20229;-52
2022/12/08 05:37:11;;;;;;;2.27;2.07;;;2.30;99.90;;;;;;5065896;28;20194;-51
2022/12/08 05:39:38;;;;;;;2.27;2.07;;;2.30;99.90;;;;;;5050494;28;20230;-51
2022/12/08 05:42:05;;;;;;;2.10;2.00;;;2.30;99.90;;;;;;5059237;28;20932;-54
2022/12/08 05:44:32;;;;;;;2.33;2.13;;;2.30;99.90;;;;;;5059414;28;20230;-52
2022/12/08 05:46:59;;;;;;;2.67;1.90;;;2.30;99.90;;;;;;5063320;28;20205;-53
2022/12/08 05:49:28;;;;;;;2.20;2.00;;;2.30;99.90;;;;;;5066496;28;20206;-54
2022/12/08 05:51:54;;;;;;;2.33;2.03;;;2.30;99.90;;;;;;5061474;28;20190;-53
2022/12/08 05:54:22;;;;;;;1.90;1.80;;;2.30;99.90;;;;;;5052787;28;20246;-49
2022/12/08 05:56:49;;;;;;;2.17;1.97;;;2.30;99.90;;;;;;5056561;28;20799;-52
2022/12/08 05:59:17;;;;;;;2.03;1.93;;;2.30;99.90;;;;;;5065888;28;20215;-54
2022/12/08 06:01:44;;;;;;;1.90;1.80;;;2.20;99.90;;;;;;5053611;28;20452;-54
2022/12/08 06:04:12;;;;;;;2.13;1.77;;;2.30;99.90;;;;;;5063134;28;20202;-55
2022/12/08 06:06:39;;;;;;;2.93;2.33;;;2.30;99.90;;;;;;5062748;28;20205;-54
2022/12/08 06:09:08;;;;;;;2.83;1.93;;;2.30;99.90;;;;;;5064612;28;20203;-52
2022/12/08 06:11:35;;;;;;;2.20;1.63;;;2.20;99.90;;;;;;5045209;28;20222;-53
2022/12/08 06:14:02;;;;;;;1.80;1.70;;;2.20;99.90;;;;;;5050315;28;20206;-52
2022/12/08 06:16:30;;;;;;;1.30;1.00;;;2.20;99.90;;;;;;5049607;28;20252;-54
2022/12/08 06:18:57;;;;;;;1.40;1.30;;;2.20;99.90;;;;;;5065826;28;20214;-51
2022/12/08 06:21:24;;;;;;;1.40;1.23;;;2.20;99.90;;;;;;5049538;28;20219;-53
2022/12/08 06:23:54;;;;;;;1.40;1.30;;;2.20;99.90;;;;;;5060253;28;20213;-52
2022/12/08 06:26:22;;;;;;;1.73;1.30;;;2.20;99.90;;;;;;5041422;28;20210;-53
2022/12/08 06:28:49;;;;;;;1.47;1.37;;;2.20;99.90;;;;;;5053232;28;20361;-47
2022/12/08 06:31:18;;;;;;;1.93;1.20;;;2.20;99.90;;;;;;5050858;28;20239;-52
2022/12/08 06:33:46;;;;;;;1.07;0.90;;;2.20;99.90;;;;;;5054093;28;20262;-51
2022/12/08 06:36:15;;;;;;;1.80;1.17;;;2.20;99.90;;;;;;5061110;28;20719;-54
2022/12/08 06:38:42;;;;;;;1.57;1.47;;;2.20;99.90;;;;;;5059115;28;20237;-49
2022/12/08 06:41:12;;;;;;;1.50;1.40;;;2.20;99.90;;;;;;5050866;28;20587;-54
2022/12/08 06:43:38;;;;;;;2.50;1.50;;;2.20;99.90;;;;;;5049690;28;20407;-50
2022/12/08 06:46:07;;;;;;;1.80;1.43;;;2.20;99.90;;;;;;5060719;28;20657;-48
2022/12/08 06:48:34;;;;;;;1.70;1.57;;;2.10;99.90;;;;;;5053687;28;20179;-51
2022/12/08 06:51:07;;;;;;;1.90;1.70;;;2.20;99.90;;;;;;5057386;28;20224;-47
2022/12/08 06:53:34;;;;;;;2.03;1.83;;;2.20;99.90;;;;;;5050321;28;20206;-52
2022/12/08 06:56:00;;;;;;;2.13;1.97;;;2.10;99.90;;;;;;5057886;28;20203;-51
2022/12/08 06:58:28;;;;;;;2.40;2.20;;;2.20;99.90;;;;;;5035186;28;20245;-52
2022/12/08 07:00:55;;;;;;;2.00;1.90;;;2.20;99.90;;;;;;5042869;28;20700;-56
2022/12/08 07:03:22;;;;;;;2.27;1.93;;;2.20;99.90;;;;;;5055232;28;20194;-52
2022/12/08 07:05:49;;;;;;;2.33;2.17;;;2.20;99.90;;;;;;5050836;28;20237;-53
2022/12/08 07:08:19;;;;;;;3.93;3.03;;;2.20;99.90;;;;;;5049831;28;20210;-52
2022/12/08 07:10:45;;;;;;;3.20;2.70;;;2.20;99.90;;;;;;5044656;28;20819;-49
2022/12/08 07:13:12;;;;;;;2.80;2.60;;;2.20;99.90;;;;;;5041986;28;20210;-52
2022/12/08 07:15:41;;;;;;;3.90;3.03;;;2.30;99.90;;;;;;5056368;28;20199;-54
2022/12/08 07:18:08;;;;;;;3.10;2.73;;;2.20;99.90;;;;;;5061117;28;20221;-50
2022/12/08 07:20:35;;;;;;;3.17;2.67;;;2.20;99.90;;;;;;5048454;28;20233;-56
2022/12/08 07:23:02;;;;;;;3.10;2.80;;;2.20;99.90;;;;;;5053923;28;20680;-47
2022/12/08 07:25:29;;;;;;;8.40;3.30;;;2.20;99.90;;;;;;5055730;28;20218;-55
2022/12/08 07:27:55;;;;;;;3.70;2.63;;;2.20;99.90;;;;;;5039542;28;20206;-53
2022/12/08 07:30:22;;;;;;;5.93;3.30;;;2.20;99.90;;;;;;5045078;28;20214;-54
2022/12/08 07:32:50;;;;;;;4.07;3.03;;;2.20;99.90;;;;;;5058265;28;20268;-47
2022/12/08 07:35:17;;;;;;;2.97;2.77;;;2.20;99.90;;;;;;5053721;28;20661;-55
2022/12/08 07:37:44;;;;;;;3.00;2.70;;;2.20;99.90;;;;;;5054125;28;20214;-47
2022/12/08 07:40:12;;;;;;;3.43;3.13;;;2.20;99.90;;;;;;5050780;28;20252;-52
2022/12/08 07:42:39;;;;;;;5.37;3.40;;;2.20;99.90;;;;;;5037367;28;20211;-51
2022/12/08 07:45:06;;;;;;;3.33;3.13;;;2.20;99.90;;;;;;5052057;28;20202;-52
2022/12/08 07:47:33;;;;;;;3.67;3.37;;;2.20;99.90;;;;;;5049213;28;20195;-49
2022/12/08 07:50:02;;;;;;;4.83;3.70;;;2.20;99.90;;;;;;5058924;28;20218;-49
2022/12/08 07:52:29;;;;;;;4.07;3.67;;;2.10;99.90;;;;;;5044924;28;20581;-52
2022/12/08 07:54:57;;;;;;;3.53;3.23;;;2.10;99.90;;;;;;5056996;28;20203;-47
2022/12/08 07:57:23;;;;;;;4.50;4.10;;;2.10;99.90;;;;;;5054111;28;20304;-51
2022/12/08 07:59:50;;;;;;;4.10;3.70;;;2.10;99.90;;;;;;5038781;28;20605;-50
2022/12/08 08:02:18;;;;;;;4.37;3.97;;;2.10;99.90;;;;;;5055842;28;20286;-55
2022/12/08 08:04:45;;;;;;;4.87;4.30;;;2.10;99.90;;;;;;5058732;28;20201;-49
2022/12/08 08:07:13;;;;;;;5.77;3.90;;;2.10;99.90;;;;;;5044867;28;20284;-51
2022/12/08 08:09:41;;;;;;;4.93;4.53;;;2.10;99.90;;;;;;5050905;28;20237;-52
2022/12/08 08:12:09;;;;;;;4.70;4.30;;;2.10;99.90;;;;;;5053240;28;20210;-50
2022/12/08 08:14:36;;;;;;;4.47;4.00;;;2.10;99.90;;;;;;5039427;28;20206;-46
2022/12/08 08:17:03;;;;;;;4.33;3.93;;;2.10;99.90;;;;;;5057027;28;20263;-51
2022/12/08 08:19:30;;;;;;;4.50;4.20;;;2.00;99.90;;;;;;5056444;28;20218;-50
2022/12/08 08:21:57;;;;;;;4.13;3.73;;;2.10;99.90;;;;;;5052848;28;20607;-51
2022/12/08 08:24:25;;;;;;;4.97;4.47;;;2.10;99.90;;;;;;5054023;28;20211;-52
2022/12/08 08:26:54;;;;;;;4.63;4.23;;;2.10;99.90;;;;;;5044354;28;20310;-51
2022/12/08 08:29:20;;;;;;;4.70;4.30;;;2.10;99.90;;;;;;5062895;28;20223;-47
2022/12/08 08:31:47;;;;;;;5.30;4.80;;;2.10;99.90;;;;;;5037000;28;20215;-52
2022/12/08 08:34:14;;;;;;;5.27;4.83;;;2.10;99.90;;;;;;5057676;28;20195;-48
2022/12/08 08:36:41;;;;;;;4.80;4.30;;;2.10;99.90;;;;;;5054267;28;20548;-49
2022/12/08 08:39:08;;;;;;;4.63;4.23;;;2.10;99.90;;;;;;5047146;28;20210;-49
2022/12/08 08:41:36;;;;;;;8.20;4.80;;;2.10;99.90;;;;;;5061084;28;20280;-44
2022/12/08 08:44:03;;;;;;;5.77;4.83;;;2.10;99.90;;;;;;5051104;28;20882;-45
2022/12/08 08:46:30;;;;;;;4.67;4.27;;;2.10;99.90;;;;;;5047759;28;20566;-46
2022/12/08 08:48:58;;;;;;;6.43;4.30;;;2.10;99.90;;;;;;5052576;28;20202;-44
2022/12/08 08:51:27;;;;;;;6.33;4.93;;;2.10;99.90;;;;;;5061745;28;20226;-44
2022/12/08 08:53:54;;;;;;;5.40;4.60;;;2.10;99.90;;;;;;5043711;28;21082;-51
2022/12/08 08:56:20;;;;;;;4.80;3.87;;;2.10;99.90;;;;;;5059361;28;20199;-47
2022/12/08 08:58:50;;;;;;;4.53;4.13;;;2.10;99.90;;;;;;5053790;28;20203;-51
2022/12/08 09:01:19;;;;;;;5.23;4.63;;;2.00;99.90;;;;;;5043828;28;20241;-49
2022/12/08 09:03:46;;;;;;;5.77;4.37;;;1.90;99.90;;;;;;5054666;28;20205;-46
2022/12/08 09:06:14;;;;;;;4.60;4.20;;;2.00;99.90;;;;;;5060475;28;20199;-46
2022/12/08 09:08:40;;;;;;;5.10;4.37;;;1.90;99.90;;;;;;5049698;28;20336;-48
2022/12/08 09:11:08;;;;;;;4.93;4.43;;;1.90;99.90;;;;;;5053788;28;20219;-48
2022/12/08 09:13:35;;;;;;;5.27;4.37;;;1.90;99.90;;;;;;5060876;28;20195;-52
2022/12/08 09:16:25;;;;;;;4.47;4.07;;;1.90;99.90;;;;;;5044227;28;20261;-49
2022/12/08 09:18:52;;;;;;;5.80;4.87;;;1.90;99.90;;;;;;5043433;28;20264;-47
2022/12/08 09:21:21;;;;;;;5.03;4.53;;;1.90;99.90;;;;;;5049821;28;20271;-53
2022/12/08 09:23:48;;;;;;;5.37;4.77;;;1.80;99.90;;;;;;5041397;28;20221;-48
2022/12/08 09:26:15;;;;;;;6.10;5.10;;;1.80;99.90;;;;;;5056687;28;20198;-52
2022/12/08 09:28:45;;;;;;;5.13;4.63;;;1.80;99.90;;;;;;5058538;28;20210;-47
2022/12/08 09:31:12;;;;;;;6.03;4.77;;;1.80;99.90;;;;;;5054229;28;20253;-55
2022/12/08 09:33:40;;;;;;;5.03;3.93;;;1.80;99.90;;;;;;5041771;28;20210;-47
2022/12/08 09:36:08;;;;;;;5.67;4.30;;;1.80;99.90;;;;;;5053859;28;20217;-52
2022/12/08 09:38:35;;;;;;;6.27;5.10;;;1.80;99.90;;;;;;5059988;28;20256;-47
2022/12/08 09:41:04;;;;;;;6.43;5.53;;;1.80;99.90;;;;;;5049513;28;20431;-49
2022/12/08 09:43:47;;;;;;;5.70;4.80;;;1.80;99.90;;;;;;5058114;28;20202;-46
2022/12/08 09:46:16;;;;;;;6.63;5.10;;;1.80;99.90;;;;;;5054297;28;20649;-53
2022/12/08 09:48:54;;;;;;;6.03;4.90;;;1.80;99.90;;;;;;5040018;28;20206;-45
2022/12/08 09:51:23;;;;;;;6.27;4.43;;;1.80;99.90;;;;;;5054630;28;20245;-48
2022/12/08 09:53:54;;;;;;;5.93;4.77;;;1.80;99.90;;;;;;5058127;28;20272;-53
2022/12/08 09:56:23;;;;;;;5.53;4.60;;;1.80;99.90;;;;;;5055154;28;20211;-48
2022/12/08 09:58:52;;;;;;;6.30;5.00;;;1.90;99.90;;;;;;5056507;28;20214;-53
2022/12/08 10:01:21;;;;;;;5.30;4.80;;;1.90;99.90;;;;;;5056341;28;20233;-49
2022/12/08 10:03:49;;;;;;;6.93;5.17;;;1.90;99.90;;;;;;5032713;28;20214;-42
2022/12/08 10:06:21;;;;;;;4.40;3.97;;;1.90;99.90;;;;;;5056922;28;20214;-48
2022/12/08 10:08:56;;;;;;;5.73;4.87;;;1.90;99.90;;;;;;5049114;28;20600;-43
2022/12/08 10:11:28;;;;;;;6.10;4.87;;;2.00;99.90;;;;;;5052368;28;20218;-47
2022/12/08 10:14:05;;;;;;;5.30;4.80;;;1.90;99.90;;;;;;5054791;28;20194;-54
2022/12/08 10:16:38;;;;;;;5.10;4.53;;;1.90;99.90;;;;;;5057362;28;20557;-43
2022/12/08 10:19:14;;;;;;;5.00;4.17;;;1.80;99.90;;;;;;5047092;28;20218;-48
2022/12/08 10:21:41;;;;;;;4.93;4.10;;;1.80;99.90;;;;;;5045272;28;20301;-48
2022/12/08 10:24:15;;;;;;;5.23;4.33;;;1.80;99.90;;;;;;5064498;28;20205;-49
2022/12/08 10:26:42;;;;;;;5.13;4.53;;;1.80;99.90;;;;;;5051707;28;20221;-50
2022/12/08 10:29:12;;;;;;;4.17;3.77;;;1.70;99.90;;;;;;5058307;28;20210;-48
2022/12/08 10:31:38;;;;;;;4.30;3.90;;;1.70;99.90;;;;;;5051953;28;20290;-48
2022/12/08 10:34:16;;;;;;;5.60;4.57;;;1.80;99.90;;;;;;5038188;28;20206;-45
2022/12/08 10:36:48;;;;;;;4.50;4.00;;;1.80;99.90;;;;;;5050112;28;20876;-47
2022/12/08 10:39:33;;;;;;;5.00;4.30;;;1.80;99.90;;;;;;5059726;28;20687;-49
2022/12/08 10:42:02;;;;;;;5.70;4.17;;;1.80;99.90;;;;;;5052085;28;20293;-53
2022/12/08 10:44:29;;;;;;;6.90;4.73;;;1.80;99.90;;;;;;5051487;28;20323;-48
2022/12/08 10:46:56;;;;;;;5.63;4.77;;;1.90;99.90;;;;;;5057475;28;20187;-50
2022/12/08 10:49:31;;;;;;;6.07;5.10;;;1.90;99.90;;;;;;5043765;28;20222;-51
2022/12/08 10:51:57;;;;;;;6.03;4.93;;;1.90;99.90;;;;;;5049925;28;20207;-53
2022/12/08 10:54:28;;;;;;;7.27;5.37;;;2.00;99.90;;;;;;5052671;28;20194;-49
2022/12/08 10:56:56;;;;;;;5.83;4.60;;;2.00;99.90;;;;;;5055590;28;20277;-51
2022/12/08 10:59:24;;;;;;;5.77;4.20;;;2.10;99.90;;;;;;5052404;28;20252;-46
2022/12/08 11:01:53;;;;;;;6.70;4.87;;;2.10;99.90;;;;;;5050893;28;20345;-56
2022/12/08 11:04:22;;;;;;;6.00;5.00;;;2.20;99.90;;;;;;5052258;28;20195;-49
2022/12/08 11:06:51;;;;;;;5.80;5.20;;;2.10;99.90;;;;;;5049264;28;20272;-55
2022/12/08 11:09:26;;;;;;;6.50;5.17;;;2.10;99.90;;;;;;5058021;28;20251;-50
2022/12/08 11:11:56;;;;;;;5.30;4.47;;;2.10;99.90;;;;;;5054873;28;20269;-52
2022/12/08 11:14:25;;;;;;;6.90;4.70;;;2.10;99.90;;;;;;5049658;28;20205;-51
2022/12/08 11:16:54;;;;;;;7.07;5.00;;;2.10;99.90;;;;;;5050099;28;20198;-51
2022/12/08 11:19:25;;;;;;;5.63;4.70;;;2.10;99.90;;;;;;5056715;28;20730;-43
2022/12/08 11:21:54;;;;;;;4.93;4.00;;;2.10;99.90;;;;;;5043606;28;20207;-51
2022/12/08 11:24:23;;;;;;;4.37;3.80;;;2.00;99.90;;;;;;5055083;28;20272;-50
2022/12/08 11:26:53;;;;;;;5.50;3.80;;;2.00;99.90;;;;;;5057392;28;20202;-57
2022/12/08 11:29:20;;;;;;;4.30;3.90;;;2.00;99.90;;;;;;5048512;28;20225;-51
2022/12/08 11:31:53;;;;;;;4.13;3.67;;;2.00;99.90;;;;;;5051253;28;20198;-51
2022/12/08 11:34:26;;;;;;;4.00;3.47;;;2.00;99.90;;;;;;5061237;28;20199;-45
2022/12/08 11:36:55;;;;;;;3.90;3.50;;;2.00;99.90;;;;;;5052555;28;20198;-49
2022/12/08 11:39:25;;;;;;;3.67;3.37;;;2.00;99.90;;;;;;5057184;28;20213;-51
2022/12/08 11:41:54;;;;;;;4.10;3.67;;;2.00;99.90;;;;;;5053380;28;20186;-56
2022/12/08 11:44:28;;;;;;;3.87;3.20;;;2.10;99.90;;;;;;5051173;28;20290;-53
2022/12/08 11:46:58;;;;;;;5.17;3.87;;;2.10;99.90;;;;;;5043129;28;20217;-53
2022/12/08 11:49:33;;;;;;;4.37;3.97;;;2.10;99.90;;;;;;5061307;28;20195;-49
2022/12/08 11:52:05;;;;;;;5.33;4.20;;;2.10;99.90;;;;;;5034533;28;20206;-47
2022/12/08 11:54:36;;;;;;;4.47;3.80;;;2.10;99.90;;;;;;5053036;28;20281;-55
2022/12/08 11:57:05;;;;;;;5.30;4.10;;;2.10;99.90;;;;;;5059855;28;21044;-53
2022/12/08 11:59:34;;;;;;;5.37;3.73;;;2.10;99.90;;;;;;5055066;28;20248;-52
2022/12/08 12:02:04;;;;;;;5.47;3.77;;;2.10;99.90;;;;;;5053525;28;20202;-52
2022/12/08 12:04:35;;;;;;;5.33;4.07;;;2.10;99.90;;;;;;5036553;28;20224;-53
2022/12/08 12:07:35;;;;;;;6.50;4.40;;;2.10;99.90;;;;;;5037958;28;20221;-46
2022/12/08 12:10:25;;;;;;;4.80;4.13;;;2.10;99.90;;;;;;5044887;28;20230;-51
2022/12/08 12:13:08;;;;;;;4.37;3.90;;;2.10;99.90;;;;;;5060801;28;20203;-55
2022/12/08 12:16:07;;;;;;;4.30;3.90;;;2.10;99.90;;;;;;5052356;28;20328;-52
2022/12/08 12:18:44;;;;;;;5.13;3.93;;;2.00;99.90;;;;;;5043121;28;20199;-45
2022/12/08 12:21:17;;;;;;;4.70;4.07;;;2.00;99.90;;;;;;5042469;28;20559;-52
2022/12/08 12:23:52;;;;;;;5.07;4.10;;;2.00;99.90;;;;;;5049594;28;20296;-50
2022/12/08 12:26:21;;;;;;;5.27;3.97;;;2.00;99.90;;;;;;5050466;28;20200;-51
2022/12/08 12:28:52;;;;;;;4.20;3.83;;;2.10;99.90;;;;;;5061416;28;20237;-50
2022/12/08 12:31:23;;;;;;;4.53;4.13;;;2.20;99.90;;;;;;5046816;28;20952;-51
2022/12/08 12:33:53;;;;;;;4.50;4.10;;;2.20;99.90;;;;;;5044830;28;20202;-48
2022/12/08 12:36:21;;;;;;;4.33;3.93;;;2.20;99.90;;;;;;5033485;28;20213;-49
2022/12/08 12:39:02;;;;;;;3.90;3.50;;;2.30;99.90;;;;;;5049887;28;20210;-48
2022/12/08 12:41:36;;;;;;;5.00;3.80;;;2.30;99.90;;;;;;5051738;28;20279;-53
2022/12/08 12:44:10;;;;;;;4.17;3.40;;;2.30;99.90;;;;;;5050490;28;20225;-50
2022/12/08 12:46:58;;;;;;;3.77;3.37;;;2.30;99.90;;;;;;5051452;28;20206;-52
2022/12/08 12:50:06;;;;;;;6.43;3.67;;;2.30;99.90;;;;;;5049788;28;20226;-49
2022/12/08 12:52:48;;;;;;;4.60;3.63;;;2.30;99.90;;;;;;5039050;28;20199;-49
2022/12/08 12:55:28;;;;;;;4.30;3.90;;;2.30;99.90;;;;;;5054498;28;20198;-50
2022/12/08 12:57:56;;;;;;;4.17;3.77;;;2.40;99.90;;;;;;5050748;28;20206;-45
2022/12/08 13:00:25;;;;;;;4.13;3.73;;;2.40;99.90;;;;;;5054349;28;20704;-54
2022/12/08 13:02:55;;;;;;;3.93;3.50;;;2.40;99.90;;;;;;5050641;28;20556;-47
2022/12/08 13:05:25;;;;;;;4.37;3.80;;;2.30;99.90;;;;;;5047907;28;20839;-53
2022/12/08 13:07:56;;;;;;;6.18;5.60;;;2.30;99.90;;;;;;5040113;28;22124;-43
2022/12/08 13:10:26;;;;;;;4.40;4.00;;;2.50;99.90;;;;;;5050018;28;20227;-46
2022/12/08 13:13:06;;;;;;;4.57;4.13;;;2.40;99.90;;;;;;5055740;28;20214;-52
2022/12/08 13:15:38;;;;;;;8.43;6.63;;;2.40;99.90;;;;;;5054086;28;20226;-53